Time;durP1;ratioP1;P1;durP2;ratioP2;P2;SDS_P1;SDS_P2;PMS_P1;PMS_P2;Temp;Humidity;BMP_temperature;BMP_pressure;BME280_temperature;BME280_humidity;BME280_pressure;Samples;Min_cycle;Max_cycle;Signal;HPM_P1;HPM_P2
2022/06/19 00:01:36;;;;;;;6.07;2.40;;;27.70;70.80;;;;;;5039167;28;21085;-83
2022/06/19 00:04:06;;;;;;;3.93;2.10;;;27.70;69.40;;;;;;5045863;28;20451;-83
2022/06/19 00:06:37;;;;;;;8.53;2.60;;;27.60;71.00;;;;;;5047052;28;20545;-84
2022/06/19 00:09:06;;;;;;;9.60;2.40;;;27.60;68.10;;;;;;5048895;28;20460;-84
2022/06/19 00:11:36;;;;;;;7.67;2.80;;;27.50;68.70;;;;;;5049731;28;20944;-85
2022/06/19 00:14:05;;;;;;;6.23;1.90;;;27.50;87.60;;;;;;5046142;28;20459;-82
2022/06/19 00:16:34;;;;;;;7.70;2.50;;;27.50;74.70;;;;;;5051719;28;20474;-84
2022/06/19 00:19:03;;;;;;;5.47;2.37;;;27.50;70.10;;;;;;5051001;28;20452;-85
2022/06/19 00:21:31;;;;;;;5.67;2.33;;;27.40;70.30;;;;;;5048534;28;20535;-84
2022/06/19 00:24:00;;;;;;;8.13;2.60;;;27.40;71.90;;;;;;5049728;28;20452;-84
2022/06/19 00:26:29;;;;;;;8.33;2.13;;;27.40;70.80;;;;;;5048508;28;20491;-84
2022/06/19 00:28:57;;;;;;;5.03;2.80;;;27.40;70.10;;;;;;5050316;28;20819;-84
2022/06/19 00:31:26;;;;;;;3.90;2.00;;;27.40;70.90;;;;;;5056727;28;20470;-84
2022/06/19 00:33:55;;;;;;;5.60;2.10;;;27.40;69.90;;;;;;5050984;28;20470;-85
2022/06/19 00:36:26;;;;;;;3.07;2.30;;;27.30;88.70;;;;;;5046671;28;20463;-84
2022/06/19 00:38:55;;;;;;;5.43;2.73;;;27.30;72.40;;;;;;5049127;28;20444;-86
2022/06/19 00:41:25;;;;;;;7.03;3.20;;;27.30;70.60;;;;;;5045975;28;20466;-84
2022/06/19 00:43:59;;;;;;;6.03;3.50;;;27.20;67.90;;;;;;5053861;28;20452;-83
2022/06/19 00:46:52;;;;;;;3.00;2.53;;;27.20;66.10;;;;;;5050521;28;20478;-83
2022/06/19 00:49:27;;;;;;;4.87;2.03;;;27.10;66.90;;;;;;5049169;28;20470;-82
2022/06/19 00:52:02;;;;;;;4.87;3.03;;;27.10;68.00;;;;;;5047084;28;20874;-84
2022/06/19 00:54:34;;;;;;;7.77;2.80;;;27.10;66.30;;;;;;5056679;28;20509;-84
2022/06/19 00:57:04;;;;;;;6.33;3.13;;;27.10;67.20;;;;;;5050594;28;21220;-84
2022/06/19 00:59:33;;;;;;;4.60;2.50;;;27.00;67.10;;;;;;5042040;28;20448;-84
2022/06/19 01:02:03;;;;;;;7.07;2.50;;;27.00;71.50;;;;;;5045261;28;20462;-84
2022/06/19 01:04:37;;;;;;;4.53;2.57;;;26.90;67.60;;;;;;5041826;28;20869;-84
2022/06/19 01:07:06;;;;;;;6.00;2.73;;;26.90;67.60;;;;;;5049511;28;20471;-83
2022/06/19 01:09:35;;;;;;;6.73;2.70;;;26.90;67.30;;;;;;5048041;28;20451;-83
2022/06/19 01:12:08;;;;;;;6.37;2.70;;;26.80;81.00;;;;;;5049674;28;20443;-83
2022/06/19 01:14:37;;;;;;;5.13;1.90;;;26.80;66.20;;;;;;5047308;28;21421;-83
2022/06/19 01:17:06;;;;;;;6.13;2.50;;;26.80;66.10;;;;;;5044211;28;20468;-84
2022/06/19 01:19:39;;;;;;;7.03;3.53;;;26.70;68.90;;;;;;5048173;28;20553;-83
2022/06/19 01:22:14;;;;;;;5.67;2.43;;;26.70;66.10;;;;;;5048593;28;20459;-83
2022/06/19 01:24:57;;;;;;;8.00;2.70;;;26.70;63.90;;;;;;5051553;28;20455;-84
2022/06/19 01:30:14;;;;;;;7.53;4.27;;;26.60;65.10;;;;;;5049767;28;20966;-84
2022/06/19 01:32:45;;;;;;;4.27;2.90;;;26.60;75.90;;;;;;5050809;28;20462;-84
2022/06/19 01:35:14;;;;;;;4.80;2.87;;;26.60;66.00;;;;;;5045675;28;21026;-83
2022/06/19 01:37:43;;;;;;;5.07;2.50;;;26.60;66.60;;;;;;5048684;28;20455;-83
2022/06/19 01:40:17;;;;;;;3.80;2.30;;;26.50;65.70;;;;;;5047798;28;20538;-85
2022/06/19 01:42:46;;;;;;;7.70;3.00;;;26.50;65.50;;;;;;5048564;28;20470;-84
2022/06/19 01:45:14;;;;;;;6.97;3.10;;;26.50;65.30;;;;;;5051039;28;20444;-84
2022/06/19 01:47:43;;;;;;;5.97;3.53;;;26.40;63.80;;;;;;5047872;28;20479;-84
2022/06/19 01:50:15;;;;;;;6.23;2.53;;;26.40;63.90;;;;;;5061743;28;20460;-84
2022/06/19 01:52:44;;;;;;;4.33;2.70;;;26.40;64.70;;;;;;5046865;28;20515;-84
2022/06/19 01:55:17;;;;;;;4.87;2.23;;;26.40;66.70;;;;;;5043841;28;20539;-84
2022/06/19 01:57:47;;;;;;;7.60;2.93;;;26.50;64.40;;;;;;5046000;28;20446;-84
2022/06/19 02:00:21;;;;;;;4.40;2.23;;;26.40;66.30;;;;;;5047265;28;20551;-83
2022/06/19 02:03:01;;;;;;;11.43;5.53;;;26.40;64.60;;;;;;5049823;28;20474;-84
2022/06/19 02:05:29;;;;;;;10.83;2.73;;;26.40;64.00;;;;;;5060935;28;20499;-83
2022/06/19 02:07:58;;;;;;;4.60;2.17;;;26.40;65.70;;;;;;5045686;28;20466;-84
2022/06/19 02:10:28;;;;;;;7.80;2.43;;;26.40;64.50;;;;;;5046099;28;20455;-83
2022/06/19 02:12:58;;;;;;;12.30;3.23;;;26.40;62.90;;;;;;5047111;28;20467;-84
2022/06/19 02:15:26;;;;;;;8.27;3.30;;;26.40;63.50;;;;;;5046557;28;20475;-84
2022/06/19 02:17:55;;;;;;;5.00;2.47;;;26.40;65.70;;;;;;5049456;28;20460;-85
2022/06/19 02:20:23;;;;;;;5.77;2.60;;;26.40;65.60;;;;;;5049371;28;20456;-83
2022/06/19 02:22:51;;;;;;;4.57;2.07;;;26.40;68.10;;;;;;5060329;28;20467;-83
2022/06/19 02:25:19;;;;;;;7.40;2.73;;;26.40;69.80;;;;;;5045160;28;20453;-84
2022/06/19 02:27:50;;;;;;;2.30;1.90;;;26.50;64.80;;;;;;5049069;28;20923;-83
2022/06/19 02:30:18;;;;;;;5.87;2.53;;;26.50;65.20;;;;;;5048750;28;20456;-83
2022/06/19 02:32:48;;;;;;;7.10;3.20;;;26.50;66.30;;;;;;5049808;28;20848;-83
2022/06/19 02:35:21;;;;;;;7.57;2.40;;;26.50;63.80;;;;;;5051533;28;20461;-83
2022/06/19 02:37:53;;;;;;;6.30;2.60;;;26.50;66.00;;;;;;5047991;28;20447;-84
2022/06/19 02:40:35;;;;;;;6.40;2.83;;;26.40;65.50;;;;;;5043858;28;20454;-83
2022/06/19 02:43:10;;;;;;;4.77;2.30;;;26.40;64.50;;;;;;5044603;28;20463;-83
2022/06/19 02:45:39;;;;;;;3.00;2.43;;;26.40;64.60;;;;;;5041714;28;20482;-83
2022/06/19 02:48:16;;;;;;;4.03;1.87;;;26.40;66.40;;;;;;5048133;28;20508;-84
2022/06/19 02:50:44;;;;;;;5.70;2.30;;;26.40;64.60;;;;;;5050472;28;20802;-83
2022/06/19 02:53:12;;;;;;;9.30;2.30;;;26.30;67.10;;;;;;5046496;28;20444;-83
2022/06/19 02:55:41;;;;;;;8.93;3.53;;;26.30;67.10;;;;;;5043573;28;20492;-83
2022/06/19 02:58:11;;;;;;;7.80;3.87;;;26.20;63.60;;;;;;5039914;28;20448;-84
2022/06/19 03:00:40;;;;;;;7.33;2.43;;;26.20;68.00;;;;;;5062740;28;20452;-82
2022/06/19 03:03:13;;;;;;;7.60;2.90;;;26.20;61.40;;;;;;5045577;28;20481;-83
2022/06/19 03:05:41;;;;;;;6.77;2.80;;;26.30;62.30;;;;;;5042539;28;20487;-83
2022/06/19 03:08:10;;;;;;;4.70;2.47;;;26.30;66.70;;;;;;5047176;28;20471;-83
2022/06/19 03:10:38;;;;;;;6.63;2.30;;;26.30;65.60;;;;;;5057195;28;20522;-83
2022/06/19 03:13:06;;;;;;;8.73;2.73;;;26.30;65.20;;;;;;5051515;28;20448;-84
2022/06/19 03:15:36;;;;;;;9.20;3.43;;;26.40;66.00;;;;;;5047022;28;20487;-84
2022/06/19 03:18:04;;;;;;;5.83;2.80;;;26.40;66.90;;;;;;5046287;28;20449;-83
2022/06/19 03:20:33;;;;;;;4.47;2.57;;;26.40;67.40;;;;;;5062116;28;20451;-83
2022/06/19 03:23:01;;;;;;;4.10;2.47;;;26.40;65.50;;;;;;5048418;28;20470;-83
2022/06/19 03:25:29;;;;;;;6.90;2.53;;;26.40;69.20;;;;;;5044961;28;20558;-84
2022/06/19 03:27:59;;;;;;;4.40;2.60;;;26.40;67.40;;;;;;5048629;28;20471;-84
2022/06/19 03:30:28;;;;;;;4.60;2.73;;;26.40;65.30;;;;;;5047790;28;21090;-83
2022/06/19 03:32:58;;;;;;;7.07;1.93;;;26.40;65.80;;;;;;5043768;28;20543;-84
2022/06/19 03:35:26;;;;;;;9.53;3.30;;;26.40;67.20;;;;;;5047365;28;20463;-83
2022/06/19 03:37:54;;;;;;;4.60;2.03;;;26.30;65.50;;;;;;5046918;28;20451;-83
2022/06/19 03:40:22;;;;;;;5.80;2.20;;;26.30;85.20;;;;;;5048011;28;20451;-81
2022/06/19 03:42:50;;;;;;;6.40;2.30;;;26.20;65.90;;;;;;5046982;28;20454;-83
2022/06/19 03:45:19;;;;;;;9.20;3.03;;;26.30;66.50;;;;;;5047089;28;20443;-82
2022/06/19 03:47:47;;;;;;;8.10;2.23;;;26.20;65.70;;;;;;5038259;28;20495;-82
2022/06/19 03:50:18;;;;;;;5.93;2.10;;;26.20;67.20;;;;;;5048173;28;20502;-83
2022/06/19 03:52:47;;;;;;;6.60;2.53;;;26.20;63.70;;;;;;5062988;28;20463;-82
2022/06/19 03:55:15;;;;;;;3.77;1.90;;;26.20;65.50;;;;;;5041266;28;20451;-82
2022/06/19 03:57:43;;;;;;;6.20;2.60;;;26.20;66.30;;;;;;5050047;28;20458;-82
2022/06/19 04:00:14;;;;;;;5.80;2.40;;;26.20;66.70;;;;;;5051235;28;20451;-82
2022/06/19 04:02:43;;;;;;;6.70;2.43;;;26.30;64.00;;;;;;5041419;28;20838;-83
2022/06/19 04:05:12;;;;;;;5.77;2.60;;;26.30;66.90;;;;;;5052259;28;20454;-81
2022/06/19 04:07:46;;;;;;;5.67;2.50;;;26.30;68.90;;;;;;5047352;28;20472;-82
2022/06/19 04:10:15;;;;;;;3.97;2.30;;;26.20;69.00;;;;;;5049294;28;20953;-82
2022/06/19 04:12:49;;;;;;;4.27;2.20;;;26.20;68.50;;;;;;5045839;28;20526;-82
2022/06/19 04:15:18;;;;;;;5.37;3.37;;;26.20;71.40;;;;;;5044005;28;20466;-83
2022/06/19 04:17:46;;;;;;;5.47;2.30;;;26.20;72.30;;;;;;5045085;28;20467;-82
2022/06/19 04:20:15;;;;;;;5.87;2.40;;;26.10;73.70;;;;;;5038689;28;20784;-79
2022/06/19 04:22:43;;;;;;;6.47;2.97;;;26.10;74.00;;;;;;5044029;28;20461;-80
2022/06/19 04:25:14;;;;;;;6.00;3.20;;;26.10;90.70;;;;;;5045527;28;20466;-79
2022/06/19 04:27:44;;;;;;;3.63;2.50;;;26.10;69.70;;;;;;5040375;28;20475;-80
2022/06/19 04:30:13;;;;;;;7.60;3.10;;;26.10;68.30;;;;;;5043646;28;20888;-79
2022/06/19 04:32:42;;;;;;;6.07;2.67;;;26.10;67.20;;;;;;5049052;28;20478;-73
2022/06/19 04:35:13;;;;;;;12.20;2.90;;;26.10;67.60;;;;;;5042226;28;21047;-73
2022/06/19 04:37:43;;;;;;;8.50;2.80;;;26.20;66.80;;;;;;5045092;28;20447;-72
2022/06/19 04:40:14;;;;;;;5.23;2.83;;;26.20;67.20;;;;;;5041982;28;20808;-75
2022/06/19 04:42:42;;;;;;;8.67;3.03;;;26.30;70.10;;;;;;5048602;28;21013;-73
2022/06/19 04:45:11;;;;;;;5.47;2.83;;;26.30;70.20;;;;;;5041510;28;20455;-72
2022/06/19 04:47:39;;;;;;;7.50;2.57;;;26.40;68.40;;;;;;5045143;28;20639;-71
2022/06/19 04:50:09;;;;;;;8.70;3.07;;;26.40;70.60;;;;;;5043727;28;20494;-77
2022/06/19 04:52:37;;;;;;;7.90;2.40;;;26.50;73.80;;;;;;5047756;28;20578;-80
2022/06/19 04:55:06;;;;;;;4.63;2.50;;;26.50;73.90;;;;;;5046423;28;20554;-82
2022/06/19 04:57:35;;;;;;;8.57;2.70;;;26.50;73.80;;;;;;5053571;28;20478;-81
2022/06/19 05:00:07;;;;;;;5.70;2.47;;;26.50;75.10;;;;;;5040779;28;20448;-83
2022/06/19 05:02:35;;;;;;;3.33;2.77;;;26.40;69.30;;;;;;5051394;28;20504;-82
2022/06/19 05:05:05;;;;;;;5.33;2.20;;;26.50;74.20;;;;;;5034049;28;20471;-81
2022/06/19 05:07:33;;;;;;;4.13;2.43;;;26.40;71.80;;;;;;5041379;28;20471;-84
2022/06/19 05:10:01;;;;;;;10.47;3.17;;;26.50;76.60;;;;;;5051551;28;20483;-82
2022/06/19 05:12:30;;;;;;;5.27;2.73;;;26.50;74.50;;;;;;5073590;28;20453;-83
2022/06/19 05:14:59;;;;;;;9.73;3.30;;;26.50;75.60;;;;;;5054144;28;20451;-83
2022/06/19 05:17:27;;;;;;;7.23;2.97;;;26.50;74.20;;;;;;5051560;28;20467;-83
2022/06/19 05:19:55;;;;;;;8.30;2.93;;;26.50;75.20;;;;;;5057092;28;20448;-83
2022/06/19 05:22:24;;;;;;;3.97;2.13;;;26.20;71.40;;;;;;5083520;28;20856;-82
2022/06/19 05:24:52;;;;;;;8.50;2.67;;;26.10;71.50;;;;;;5053834;28;20455;-83
2022/06/19 05:27:20;;;;;;;5.20;2.50;;;26.20;72.50;;;;;;5058918;28;21019;-84
2022/06/19 05:29:49;;;;;;;9.57;2.67;;;26.10;88.50;;;;;;5068662;28;20459;-83
2022/06/19 05:32:18;;;;;;;9.43;2.90;;;26.20;72.80;;;;;;5058848;28;20459;-83
2022/06/19 05:34:47;;;;;;;6.43;2.80;;;26.20;72.20;;;;;;5050581;28;20483;-83
2022/06/19 05:37:15;;;;;;;9.67;3.03;;;26.30;73.40;;;;;;5048271;28;20487;-83
2022/06/19 05:39:44;;;;;;;7.17;2.20;;;26.40;77.20;;;;;;5049867;28;20539;-83
2022/06/19 05:42:19;;;;;;;23.47;4.80;;;26.30;73.40;;;;;;5054122;28;20505;-83
2022/06/19 05:44:47;;;;;;;8.83;3.30;;;26.40;76.80;;;;;;5063436;28;21025;-82
2022/06/19 05:47:15;;;;;;;9.70;2.90;;;26.30;75.70;;;;;;5052102;28;20474;-83
2022/06/19 05:49:46;;;;;;;5.97;2.47;;;26.40;76.60;;;;;;5054496;28;20566;-83
2022/06/19 05:52:16;;;;;;;7.30;3.57;;;26.50;76.70;;;;;;5052466;28;20463;-82
2022/06/19 05:54:45;;;;;;;11.20;5.00;;;26.60;77.50;;;;;;5054108;28;20826;-83
2022/06/19 05:57:14;;;;;;;6.70;2.57;;;26.70;86.90;;;;;;5064743;28;20479;-83
2022/06/19 05:59:42;;;;;;;3.73;2.33;;;26.70;80.40;;;;;;5051969;28;20447;-83
2022/06/19 06:02:13;;;;;;;10.10;2.53;;;26.80;83.60;;;;;;5046040;28;20467;-83
2022/06/19 06:04:41;;;;;;;8.03;3.10;;;26.70;79.00;;;;;;5048164;28;20455;-84
2022/06/19 06:07:12;;;;;;;8.50;2.33;;;26.60;81.80;;;;;;5051607;28;20472;-82
2022/06/19 06:09:40;;;;;;;7.87;3.10;;;26.60;78.50;;;;;;5045890;28;20479;-84
2022/06/19 06:12:08;;;;;;;10.03;2.90;;;26.50;77.70;;;;;;5054184;28;20466;-83
2022/06/19 06:14:37;;;;;;;6.97;2.80;;;26.40;74.70;;;;;;5050577;28;20452;-83
2022/06/19 06:17:05;;;;;;;6.00;2.63;;;26.50;79.40;;;;;;5047800;28;20510;-82
2022/06/19 06:19:34;;;;;;;5.80;3.30;;;26.70;82.10;;;;;;5064789;28;21021;-83
2022/06/19 06:22:03;;;;;;;12.60;3.70;;;26.80;82.90;;;;;;5051004;28;20459;-83
2022/06/19 06:24:33;;;;;;;7.90;2.87;;;26.90;83.90;;;;;;5063652;28;20484;-83
2022/06/19 06:27:05;;;;;;;6.40;2.40;;;26.90;84.00;;;;;;5052831;28;20479;-84
2022/06/19 06:29:33;;;;;;;4.87;2.63;;;27.00;84.10;;;;;;5050620;28;20488;-83
2022/06/19 06:32:01;;;;;;;7.37;2.90;;;27.00;90.00;;;;;;5053167;28;20478;-83
2022/06/19 06:34:30;;;;;;;6.10;2.43;;;27.10;88.70;;;;;;5055761;28;20822;-83
2022/06/19 06:36:58;;;;;;;5.83;2.67;;;27.10;86.20;;;;;;5048409;28;20525;-83
2022/06/19 06:39:26;;;;;;;3.73;2.33;;;27.10;87.20;;;;;;5047314;28;20999;-84
2022/06/19 06:41:56;;;;;;;5.13;2.90;;;27.10;89.90;;;;;;5049260;28;20482;-84
2022/06/19 06:44:24;;;;;;;3.43;2.33;;;27.30;91.40;;;;;;5048020;28;20452;-83
2022/06/19 06:46:52;;;;;;;8.60;3.20;;;27.30;92.50;;;;;;5051692;28;20523;-83
2022/06/19 06:49:20;;;;;;;12.70;4.10;;;27.40;92.90;;;;;;5057521;28;20566;-83
2022/06/19 06:51:49;;;;;;;7.83;3.60;;;27.40;91.80;;;;;;5058326;28;20577;-83
2022/06/19 06:54:17;;;;;;;9.13;3.90;;;27.50;92.80;;;;;;5050135;28;20455;-82
2022/06/19 06:56:45;;;;;;;7.10;3.70;;;27.50;92.30;;;;;;5052068;28;20492;-84
2022/06/19 06:59:15;;;;;;;7.53;3.50;;;27.50;93.70;;;;;;5055839;28;20459;-83
2022/06/19 07:01:44;;;;;;;8.13;3.53;;;27.60;93.40;;;;;;5059242;28;20462;-82
2022/06/19 07:04:13;;;;;;;10.63;3.00;;;27.60;93.10;;;;;;5050509;28;20455;-84
2022/06/19 07:06:41;;;;;;;5.70;2.80;;;27.70;94.80;;;;;;5052741;28;20468;-83
2022/06/19 07:09:09;;;;;;;5.07;3.40;;;27.70;96.70;;;;;;5048668;28;20616;-83
2022/06/19 07:11:39;;;;;;;8.83;4.50;;;27.80;96.80;;;;;;5051162;28;20458;-84
2022/06/19 07:14:08;;;;;;;8.83;3.70;;;27.80;95.10;;;;;;5054133;28;20439;-83
2022/06/19 07:16:38;;;;;;;6.40;3.30;;;27.90;95.10;;;;;;5052383;28;20541;-84
2022/06/19 07:19:06;;;;;;;7.97;4.20;;;27.90;97.60;;;;;;5049135;28;20451;-82
2022/06/19 07:21:35;;;;;;;7.47;4.30;;;28.00;97.40;;;;;;5052804;28;20463;-83
2022/06/19 07:24:03;;;;;;;11.43;5.03;;;28.10;98.10;;;;;;5046146;28;20463;-83
2022/06/19 07:26:32;;;;;;;7.57;4.00;;;28.10;99.90;;;;;;5045007;28;20534;-83
2022/06/19 07:29:00;;;;;;;13.47;4.73;;;28.20;99.90;;;;;;5049037;28;20479;-82
2022/06/19 07:31:34;;;;;;;10.00;4.57;;;28.10;98.50;;;;;;5035265;28;20471;-83
2022/06/19 07:34:04;;;;;;;6.80;3.50;;;28.20;97.40;;;;;;5048286;28;20467;-83
2022/06/19 07:36:33;;;;;;;10.93;4.37;;;28.30;98.60;;;;;;5049751;28;20475;-84
2022/06/19 07:39:01;;;;;;;7.40;3.93;;;28.30;99.10;;;;;;5038842;28;20980;-83
2022/06/19 07:41:29;;;;;;;12.30;5.13;;;28.40;99.50;;;;;;5059538;28;20448;-84
2022/06/19 07:43:58;;;;;;;6.00;4.07;;;28.40;99.60;;;;;;5049746;28;20451;-83
2022/06/19 07:46:26;;;;;;;8.80;4.00;;;28.40;99.90;;;;;;5052497;28;20471;-83
2022/06/19 07:51:42;;;;;;;7.07;4.90;;;28.60;99.90;;;;;;5049755;28;20451;-84
2022/06/19 07:54:10;;;;;;;5.33;4.80;;;28.70;99.90;;;;;;5044353;28;20456;-84
2022/06/19 07:56:38;;;;;;;10.83;5.40;;;28.70;99.90;;;;;;5045527;28;20484;-83
2022/06/19 07:59:06;;;;;;;7.37;5.53;;;28.80;99.90;;;;;;5050750;28;20455;-83
2022/06/19 08:01:34;;;;;;;6.00;4.83;;;28.80;99.90;;;;;;5051765;28;20447;-84
2022/06/19 08:04:23;;;;;;;13.47;5.30;;;28.90;99.90;;;;;;5051310;28;20595;-84
2022/06/19 08:06:53;;;;;;;6.30;5.43;;;28.90;99.90;;;;;;5046565;28;20478;-82
2022/06/19 08:09:21;;;;;;;8.70;6.20;;;28.90;99.90;;;;;;5060225;28;20486;-83
2022/06/19 08:11:49;;;;;;;6.37;5.77;;;29.00;99.90;;;;;;5065750;28;20479;-83
2022/06/19 08:14:18;;;;;;;8.03;7.23;;;29.10;99.90;;;;;;5046743;28;20444;-84
2022/06/19 08:16:46;;;;;;;8.37;6.43;;;29.10;99.90;;;;;;5049129;28;20545;-82
2022/06/19 08:19:21;;;;;;;14.90;6.47;;;29.20;99.90;;;;;;5049164;28;20435;-83
2022/06/19 08:21:49;;;;;;;7.00;5.77;;;29.20;99.90;;;;;;5050106;28;20451;-83
2022/06/19 08:24:19;;;;;;;8.73;6.57;;;29.20;99.90;;;;;;5045352;28;21361;-84
2022/06/19 08:26:47;;;;;;;8.10;6.50;;;29.30;99.90;;;;;;5048264;28;20474;-84
2022/06/19 08:29:15;;;;;;;7.43;5.63;;;29.40;99.90;;;;;;5051059;28;20444;-84
2022/06/19 08:31:43;;;;;;;8.30;6.33;;;29.40;99.90;;;;;;5047952;28;20496;-85
2022/06/19 08:34:11;;;;;;;6.83;5.90;;;29.40;99.90;;;;;;5053215;28;20466;-83
2022/06/19 08:36:40;;;;;;;7.57;6.70;;;29.40;99.90;;;;;;5050649;28;20879;-84
2022/06/19 08:39:12;;;;;;;10.63;7.17;;;29.50;99.90;;;;;;5051737;28;20447;-83
2022/06/19 08:42:03;;;;;;;10.17;6.20;;;29.50;99.90;;;;;;5056908;28;20458;-84
2022/06/19 08:44:53;;;;;;;9.50;8.03;;;29.60;99.90;;;;;;5051099;28;20448;-83
2022/06/19 08:47:35;;;;;;;8.40;7.03;;;29.70;99.90;;;;;;5046352;28;20482;-84
2022/06/19 08:50:12;;;;;;;8.00;7.30;;;29.80;99.90;;;;;;5053022;28;20498;-83
2022/06/19 08:52:56;;;;;;;9.63;8.23;;;29.80;99.90;;;;;;5052564;28;20454;-84
2022/06/19 08:55:32;;;;;;;8.90;7.33;;;29.90;99.90;;;;;;5066197;28;20505;-84
2022/06/19 08:58:10;;;;;;;10.93;7.10;;;30.00;99.90;;;;;;5050195;28;20451;-83
2022/06/19 09:00:49;;;;;;;10.50;8.00;;;30.10;99.90;;;;;;5052807;28;20438;-84
2022/06/19 09:03:26;;;;;;;9.57;8.57;;;30.20;99.80;;;;;;5034816;28;20987;-84
2022/06/19 09:06:02;;;;;;;10.30;6.27;;;30.20;99.30;;;;;;5074523;28;20471;-84
2022/06/19 09:08:57;;;;;;;9.40;8.33;;;30.20;98.30;;;;;;5062008;28;20454;-84
2022/06/19 09:11:43;;;;;;;9.80;6.90;;;30.30;97.20;;;;;;5045462;28;20474;-83
2022/06/19 09:14:27;;;;;;;7.23;5.87;;;30.30;96.40;;;;;;5045741;28;20451;-83
2022/06/19 09:17:08;;;;;;;8.00;5.53;;;30.40;96.10;;;;;;5050283;28;20479;-84
2022/06/19 09:19:58;;;;;;;8.90;6.17;;;30.50;97.00;;;;;;5043240;28;20452;-84
2022/06/19 09:22:56;;;;;;;9.77;7.93;;;30.60;97.40;;;;;;5044995;28;20490;-83
2022/06/19 09:25:41;;;;;;;9.57;7.23;;;30.70;97.80;;;;;;5044357;28;20870;-83
2022/06/19 09:28:15;;;;;;;11.37;7.80;;;30.70;97.10;;;;;;5058872;28;20465;-84
2022/06/19 09:30:49;;;;;;;7.70;6.20;;;30.70;98.10;;;;;;5056716;28;20479;-84
2022/06/19 09:33:25;;;;;;;8.37;7.20;;;30.70;98.40;;;;;;5074518;28;20459;-84
2022/06/19 09:36:00;;;;;;;6.67;5.80;;;30.80;98.70;;;;;;5054773;28;20521;-83
2022/06/19 09:38:37;;;;;;;11.30;6.30;;;30.80;98.00;;;;;;5046905;28;20920;-84
2022/06/19 09:41:12;;;;;;;7.00;5.97;;;30.90;97.90;;;;;;5052087;28;20455;-83
2022/06/19 09:43:45;;;;;;;11.57;6.97;;;30.90;97.70;;;;;;5049067;28;20458;-84
2022/06/19 09:46:25;;;;;;;8.93;6.10;;;31.00;98.00;;;;;;5065962;28;20491;-83
2022/06/19 09:49:02;;;;;;;9.93;7.13;;;31.00;97.20;;;;;;5051265;28;20464;-83
2022/06/19 09:51:37;;;;;;;8.33;6.07;;;31.00;97.70;;;;;;5042167;28;20483;-83
2022/06/19 09:54:11;;;;;;;8.50;6.10;;;31.10;97.80;;;;;;5049495;28;20602;-83
2022/06/19 09:56:46;;;;;;;8.80;5.83;;;31.20;98.20;;;;;;5048313;28;20471;-84
2022/06/19 09:59:21;;;;;;;11.47;5.80;;;31.30;97.80;;;;;;5050634;28;20534;-84
2022/06/19 10:01:57;;;;;;;8.90;5.93;;;31.30;98.50;;;;;;5051144;28;20501;-84
2022/06/19 10:04:38;;;;;;;6.50;5.37;;;31.30;97.20;;;;;;5047885;28;21194;-84
2022/06/19 10:07:15;;;;;;;15.63;6.50;;;31.30;96.50;;;;;;5052219;28;20482;-83
2022/06/19 10:09:50;;;;;;;12.30;5.73;;;31.30;96.50;;;;;;5061400;28;20497;-83
2022/06/19 10:12:27;;;;;;;8.10;5.40;;;31.30;97.30;;;;;;5041081;28;20451;-83
2022/06/19 10:15:02;;;;;;;8.70;6.40;;;31.40;95.90;;;;;;5051485;28;20512;-84
2022/06/19 10:17:41;;;;;;;7.80;7.00;;;31.40;96.10;;;;;;5051293;28;20494;-85
2022/06/19 10:20:15;;;;;;;5.93;5.27;;;31.40;96.10;;;;;;5059263;28;20459;-83
2022/06/19 10:22:53;;;;;;;7.33;5.70;;;31.50;97.10;;;;;;5051483;28;20466;-83
2022/06/19 10:25:33;;;;;;;10.60;5.40;;;31.50;96.10;;;;;;5050006;28;20444;-83
2022/06/19 10:28:19;;;;;;;11.70;6.50;;;31.60;96.80;;;;;;5047863;28;20478;-84
2022/06/19 10:30:57;;;;;;;8.83;6.97;;;31.60;97.20;;;;;;5053688;28;20529;-84
2022/06/19 10:33:42;;;;;;;6.30;5.13;;;31.70;97.70;;;;;;5058639;28;20457;-84
2022/06/19 10:36:18;;;;;;;9.80;6.00;;;31.80;98.60;;;;;;5049521;28;20490;-83
2022/06/19 10:39:00;;;;;;;10.07;5.47;;;31.80;97.70;;;;;;5050760;28;20455;-84
2022/06/19 10:44:29;;;;;;;6.20;4.80;;;31.80;96.50;;;;;;5046525;28;20460;-84
2022/06/19 10:47:08;;;;;;;10.03;5.20;;;31.80;96.20;;;;;;5047102;28;20473;-82
2022/06/19 10:49:47;;;;;;;5.37;4.20;;;31.90;96.00;;;;;;5071532;28;20451;-84
2022/06/19 10:52:21;;;;;;;9.93;5.20;;;31.80;95.10;;;;;;5076990;28;20474;-84
2022/06/19 10:54:58;;;;;;;6.07;4.70;;;31.80;95.30;;;;;;5048355;28;21056;-83
2022/06/19 10:57:34;;;;;;;7.23;5.40;;;31.90;94.70;;;;;;5051410;28;20463;-84
2022/06/19 11:00:05;;;;;;;6.47;5.00;;;31.80;95.30;;;;;;5055305;28;20486;-84
2022/06/19 11:05:32;;;;;;;4.87;4.23;;;32.00;94.90;;;;;;5057740;28;20453;-84
2022/06/19 11:08:01;;;;;;;5.87;4.60;;;32.00;95.60;;;;;;5048968;28;20454;-83
2022/06/19 11:10:37;;;;;;;9.13;5.23;;;32.10;99.90;;;;;;5052475;28;20455;-83
2022/06/19 11:13:05;;;;;;;12.97;6.33;;;32.10;95.80;;;;;;5039175;28;21279;-83
2022/06/19 11:15:36;;;;;;;8.57;5.50;;;32.00;96.70;;;;;;5054868;28;20487;-84
2022/06/19 11:18:14;;;;;;;4.80;4.30;;;32.10;95.90;;;;;;5054124;28;20460;-84
2022/06/19 11:20:56;;;;;;;9.60;4.60;;;32.10;94.90;;;;;;5053841;28;20491;-83
2022/06/19 11:23:29;;;;;;;6.43;4.53;;;32.10;94.40;;;;;;5052626;28;20822;-84
2022/06/19 11:26:10;;;;;;;6.93;4.53;;;32.10;99.90;;;;;;5048742;28;20480;-83
2022/06/19 11:28:48;;;;;;;6.30;4.90;;;32.10;95.60;;;;;;5046724;28;20443;-84
2022/06/19 11:31:21;;;;;;;6.10;4.73;;;32.20;96.30;;;;;;5054092;28;20577;-85
2022/06/19 11:33:53;;;;;;;9.47;5.47;;;32.30;96.00;;;;;;5038637;28;20452;-84
2022/06/19 11:36:41;;;;;;;8.80;5.10;;;32.20;96.60;;;;;;5048350;28;20466;-83
2022/06/19 11:39:35;;;;;;;5.17;4.70;;;32.30;96.20;;;;;;5050750;28;20947;-84
2022/06/19 11:42:31;;;;;;;5.87;4.93;;;32.30;95.80;;;;;;5053665;28;20980;-83
2022/06/19 11:45:02;;;;;;;5.40;4.47;;;32.40;96.60;;;;;;5048160;28;20993;-83
2022/06/19 11:47:37;;;;;;;7.97;4.97;;;32.40;97.20;;;;;;5048190;28;20476;-83
2022/06/19 11:50:15;;;;;;;8.70;5.40;;;32.40;97.10;;;;;;5050373;28;20518;-83
2022/06/19 11:52:49;;;;;;;7.60;4.80;;;32.40;97.30;;;;;;5039741;28;20484;-83
2022/06/19 11:55:30;;;;;;;7.67;5.33;;;32.50;98.10;;;;;;5043080;28;20450;-84
2022/06/19 11:58:01;;;;;;;10.10;6.60;;;32.50;97.80;;;;;;5049771;28;20528;-84
2022/06/19 12:00:33;;;;;;;4.27;3.87;;;32.60;98.40;;;;;;5057144;28;20544;-83
2022/06/19 12:03:04;;;;;;;6.33;4.90;;;32.60;99.20;;;;;;5053852;28;20820;-84
2022/06/19 12:05:35;;;;;;;6.07;5.33;;;32.60;99.80;;;;;;5057209;28;20490;-83
2022/06/19 12:08:19;;;;;;;6.03;4.57;;;32.70;99.90;;;;;;5054003;28;20512;-84
2022/06/19 12:10:54;;;;;;;5.00;4.50;;;32.70;99.20;;;;;;5042097;28;20499;-84
2022/06/19 12:13:26;;;;;;;10.80;5.30;;;32.70;99.80;;;;;;5049594;28;20463;-83
2022/06/19 12:16:02;;;;;;;9.27;5.07;;;32.80;99.90;;;;;;5061085;28;20462;-84
2022/06/19 12:18:33;;;;;;;8.10;4.93;;;32.90;99.50;;;;;;5057661;28;20469;-83
2022/06/19 12:21:05;;;;;;;6.20;4.77;;;32.90;99.90;;;;;;5064188;28;20451;-84
2022/06/19 12:23:41;;;;;;;6.27;4.67;;;32.90;99.40;;;;;;5060411;28;20448;-84
2022/06/19 12:26:17;;;;;;;8.30;4.67;;;32.90;98.20;;;;;;5045895;28;20500;-84
2022/06/19 12:28:50;;;;;;;6.83;4.60;;;32.90;98.50;;;;;;5051751;28;20458;-84
2022/06/19 12:31:22;;;;;;;6.10;4.40;;;32.80;97.60;;;;;;5053834;28;20471;-83
2022/06/19 12:33:54;;;;;;;7.43;5.97;;;32.90;97.50;;;;;;5046262;28;20450;-83
2022/06/19 12:36:28;;;;;;;5.80;5.27;;;32.90;97.00;;;;;;5055142;28;21106;-84
2022/06/19 12:38:58;;;;;;;7.53;3.87;;;32.90;97.60;;;;;;5061156;28;20443;-84
2022/06/19 12:41:39;;;;;;;6.60;4.70;;;32.90;98.70;;;;;;5055496;28;20455;-82
2022/06/19 12:44:28;;;;;;;6.83;4.00;;;33.00;98.90;;;;;;5055186;28;20467;-83
2022/06/19 12:47:06;;;;;;;9.13;5.73;;;33.00;97.70;;;;;;5050327;28;20479;-83
2022/06/19 12:50:01;;;;;;;10.53;5.67;;;32.90;97.40;;;;;;5052204;28;20938;-84
2022/06/19 12:52:39;;;;;;;5.60;4.50;;;33.00;97.30;;;;;;5043683;28;20475;-84
2022/06/19 12:55:21;;;;;;;5.00;4.60;;;33.00;97.80;;;;;;5057133;28;20447;-82
2022/06/19 12:58:14;;;;;;;6.37;4.43;;;33.00;97.50;;;;;;5046051;28;20459;-83
2022/06/19 13:00:46;;;;;;;6.57;5.37;;;33.00;97.90;;;;;;5061367;28;20828;-83
2022/06/19 13:03:42;;;;;;;7.30;4.77;;;33.00;97.50;;;;;;5054250;28;20455;-83
2022/06/19 13:06:38;;;;;;;7.10;4.87;;;33.00;97.00;;;;;;5046822;28;20475;-83
2022/06/19 13:09:24;;;;;;;11.70;4.40;;;33.00;99.90;;;;;;5048702;28;20463;-84
2022/06/19 13:12:05;;;;;;;4.33;4.00;;;33.00;98.50;;;;;;5057139;28;20481;-83
2022/06/19 13:14:59;;;;;;;6.00;4.63;;;33.10;98.40;;;;;;5055036;28;20466;-84
2022/06/19 13:17:32;;;;;;;5.20;4.40;;;33.10;97.60;;;;;;5054201;28;20475;-84
2022/06/19 13:20:14;;;;;;;6.90;5.00;;;33.20;98.70;;;;;;5052336;28;20447;-82
2022/06/19 13:22:50;;;;;;;4.43;4.03;;;33.20;97.80;;;;;;5051491;28;21197;-83
2022/06/19 13:25:26;;;;;;;4.43;4.00;;;33.20;98.40;;;;;;5058626;28;20458;-84